Time;durP1;ratioP1;P1;durP2;ratioP2;P2;SDS_P1;SDS_P2;PMS_P1;PMS_P2;Temp;Humidity;BMP_temperature;BMP_pressure;BME280_temperature;BME280_humidity;BME280_pressure;Samples;Min_cycle;Max_cycle;Signal;HPM_P1;HPM_P2
2021/01/02 07:29:19;;;;;;;4.87;3.00;;;;;;;3.90;72.12;99925.75;4394153;32;32429;-80
2021/01/02 07:31:47;;;;;;;12.68;3.95;;;;;;;4.10;71.51;99922.63;4395316;32;35029;-80
2021/01/02 07:34:22;;;;;;;2.87;2.22;;;;;;;4.21;71.38;99916.66;4390671;32;34079;-80
2021/01/02 07:36:50;;;;;;;5.90;5.40;;;;;;;4.26;71.07;99917.19;4374843;32;35127;-80
2021/01/02 07:39:18;;;;;;;4.00;3.60;;;;;;;4.00;72.39;99941.75;4398224;32;34591;-80
2021/01/02 07:41:45;;;;;;;4.07;3.47;;;;;;;4.19;71.41;99943.09;4388261;32;35662;-80
2021/01/02 07:44:14;;;;;;;4.68;3.60;;;;;;;3.82;72.71;99951.69;4388026;32;34141;-80
2021/01/02 07:46:44;;;;;;;3.20;2.87;;;;;;;4.07;71.94;99943.06;4385241;32;34446;-80
2021/01/02 07:49:15;;;;;;;9.88;4.10;;;;;;;4.21;71.39;99954.38;4397337;32;33681;-80
2021/01/02 07:51:50;;;;;;;4.60;3.53;;;;;;;4.35;71.17;99951.66;4387463;32;33534;-80
2021/01/02 07:54:35;;;;;;;6.80;4.50;;;;;;;4.37;71.37;99951.56;4389340;32;34875;-80
2021/01/02 07:57:08;;;;;;;5.75;4.90;;;;;;;4.39;71.41;99949.66;4376683;32;34140;-80
2021/01/02 07:59:39;;;;;;;3.22;2.90;;;;;;;4.31;71.58;99951.97;4367848;32;32631;-80
2021/01/02 08:02:25;;;;;;;6.75;5.90;;;;;;;4.35;71.78;99951.66;4365497;32;37057;-80
2021/01/02 08:04:56;;;;;;;15.55;7.95;;;;;;;4.23;71.84;99957.75;4376665;32;34477;-80
2021/01/02 08:07:24;;;;;;;9.07;7.05;;;;;;;4.39;71.35;99950.53;4371183;32;33344;-80
2021/01/02 08:09:51;;;;;;;5.25;4.15;;;;;;;4.47;71.06;99942.94;4373170;32;33719;-80
2021/01/02 08:12:20;;;;;;;15.65;6.30;;;;;;;4.62;70.84;99944.53;4385431;32;35172;-80
2021/01/02 08:14:48;;;;;;;;;;;;;;;4.77;70.30;99938.25;4385318;32;35328;-80
2021/01/02 08:17:16;;;;;;;5.90;5.03;;;;;;;4.75;69.97;99944.56;4389165;32;31430;-80
2021/01/02 08:19:47;;;;;;;4.45;4.12;;;;;;;4.69;70.72;99944.97;4400661;32;31976;-80
2021/01/02 08:22:26;;;;;;;4.05;2.22;;;;;;;4.90;70.00;99946.16;4388268;32;36439;-80
2021/01/02 08:24:59;;;;;;;3.92;3.62;;;;;;;4.84;70.15;99962.37;4386104;32;34834;-80
2021/01/02 08:27:29;;;;;;;16.23;5.87;;;;;;;4.91;70.11;99963.66;4374040;32;33726;-80
2021/01/02 08:30:04;;;;;;;6.18;4.60;;;;;;;5.08;69.28;99969.44;4383444;32;34032;-80
2021/01/02 08:32:35;;;;;;;4.72;3.83;;;;;;;5.17;69.12;99966.19;4400946;32;37129;-80
2021/01/02 08:35:18;;;;;;;4.37;3.42;;;;;;;4.91;69.57;99980.28;4388857;32;35181;-80
2021/01/02 08:37:47;;;;;;;3.33;3.12;;;;;;;4.77;70.24;99983.03;4397645;32;34688;-80
2021/01/02 08:40:17;;;;;;;6.90;5.10;;;;;;;4.72;70.13;99981.66;4400660;32;34127;-80
2021/01/02 08:42:46;;;;;;;5.95;3.55;;;;;;;4.44;70.81;99982.66;4386875;32;35651;-81
2021/01/02 08:45:27;;;;;;;5.62;4.85;;;;;;;4.77;70.36;99976.91;4378724;32;33811;-80
2021/01/02 08:48:04;;;;;;;2.42;2.10;;;;;;;4.83;69.82;99966.78;4395725;32;33349;-81
2021/01/02 08:50:34;;;;;;;3.22;2.08;;;;;;;4.51;71.06;99973.41;4388497;32;33644;-80
2021/01/02 08:53:04;;;;;;;2.97;2.03;;;;;;;4.43;71.47;99974.88;4388532;32;36196;-80
2021/01/02 08:55:31;;;;;;;5.28;4.03;;;;;;;4.62;70.78;99964.78;4401024;32;32708;-80
2021/01/02 08:57:59;;;;;;;4.45;2.25;;;;;;;4.60;70.92;99977.19;4388416;32;31684;-80
2021/01/02 09:00:29;;;;;;;5.85;2.92;;;;;;;4.84;70.04;99971.16;4394912;32;33398;-80
2021/01/02 09:03:05;;;;;;;4.97;1.58;;;;;;;4.88;70.06;99977.03;4372966;32;35774;-81
2021/01/02 09:05:42;;;;;;;3.58;3.20;;;;;;;5.19;69.66;99960.81;4389359;32;34521;-80
2021/01/02 09:08:16;;;;;;;1.25;1.08;;;;;;;5.11;69.74;99952.56;4380614;32;33745;-81
2021/01/02 09:10:46;;;;;;;14.00;6.07;;;;;;;5.20;69.09;99957.22;4385816;32;33708;-80
2021/01/02 09:13:16;;;;;;;2.28;2.08;;;;;;;5.32;68.78;99956.34;4386464;32;35272;-81
2021/01/02 09:15:51;;;;;;;2.95;2.40;;;;;;;5.33;67.81;99952.75;4413342;32;33597;-80
2021/01/02 09:18:27;;;;;;;2.08;2.00;;;;;;;5.18;68.93;99951.22;4380661;32;33363;-80
2021/01/02 09:20:56;;;;;;;3.53;3.15;;;;;;;5.15;68.30;99951.41;4400916;32;35449;-80
2021/01/02 09:23:37;;;;;;;5.62;5.05;;;;;;;5.20;68.29;99954.56;4383181;32;34753;-80
2021/01/02 09:26:29;;;;;;;1.90;1.60;;;;;;;5.37;68.12;99944.50;4398642;32;33206;-80
2021/01/02 09:28:59;;;;;;;2.58;2.37;;;;;;;5.44;67.21;99943.13;4396847;32;34089;-80
2021/01/02 09:31:27;;;;;;;1.70;1.58;;;;;;;5.32;67.95;99941.38;4382933;32;32351;-80
2021/01/02 09:33:56;;;;;;;;;;;;;;;5.28;68.34;99939.87;4384945;32;35031;-80
2021/01/02 09:36:25;;;;;;;2.65;2.33;;;;;;;5.34;68.00;99936.81;4396016;32;33103;-80
2021/01/02 09:38:52;;;;;;;9.63;3.40;;;;;;;5.61;66.80;99926.97;4393655;32;32244;-81
2021/01/02 09:41:22;;;;;;;3.67;3.00;;;;;;;5.33;67.83;99927.22;4398608;32;33159;-80
2021/01/02 09:43:50;;;;;;;3.08;1.98;;;;;;;5.39;67.83;99923.31;4379465;32;35004;-80
2021/01/02 09:46:18;;;;;;;1.70;1.60;;;;;;;5.45;67.74;99923.72;4373184;32;34291;-80
2021/01/02 09:48:47;;;;;;;3.55;2.72;;;;;;;5.29;68.06;99917.00;4380248;32;32976;-80
2021/01/02 09:51:15;;;;;;;1.83;1.73;;;;;;;5.26;68.09;99904.03;4370839;32;35878;-80
2021/01/02 09:53:43;;;;;;;3.12;2.10;;;;;;;5.22;69.46;99916.59;4394742;32;37137;-80
2021/01/02 09:56:10;;;;;;;1.93;1.13;;;;;;;5.65;66.74;99918.72;4380090;32;36583;-81
2021/01/02 09:58:38;;;;;;;2.22;1.45;;;;;;;5.47;68.14;99917.37;4384440;32;33065;-80
2021/01/02 10:01:06;;;;;;;1.37;1.33;;;;;;;5.79;66.45;99913.28;4380845;32;33751;-80
2021/01/02 10:03:33;;;;;;;4.80;2.20;;;;;;;5.40;68.11;99906.53;4385043;32;34724;-80
2021/01/02 10:06:00;;;;;;;1.58;1.35;;;;;;;5.48;67.62;99905.88;4392984;32;34714;-80
2021/01/02 10:08:33;;;;;;;1.90;1.83;;;;;;;5.63;66.60;99912.69;4383288;32;34095;-80
2021/01/02 10:11:02;;;;;;;3.70;3.40;;;;;;;5.76;66.88;99910.84;4403515;32;34198;-80
2021/01/02 10:13:30;;;;;;;1.62;1.45;;;;;;;5.71;66.96;99909.50;4375364;32;35627;-80
2021/01/02 10:15:58;;;;;;;6.37;3.33;;;;;;;5.30;68.04;99908.13;4400384;32;36764;-80
2021/01/02 10:18:29;;;;;;;2.30;2.17;;;;;;;5.39;67.67;99903.06;4372021;32;32609;-80
2021/01/02 10:20:56;;;;;;;4.03;2.73;;;;;;;5.53;67.34;99898.50;4385586;32;34278;-80
2021/01/02 10:23:24;;;;;;;7.80;4.55;;;;;;;5.79;66.61;99893.97;4388106;32;34980;-79
2021/01/02 10:25:51;;;;;;;3.25;3.03;;;;;;;5.78;67.11;99892.28;4387944;32;35139;-80
2021/01/02 10:28:19;;;;;;;1.33;1.23;;;;;;;5.83;66.54;99884.88;4387327;32;32859;-80
2021/01/02 10:30:46;;;;;;;2.08;1.95;;;;;;;5.67;66.74;99879.84;4400013;32;33980;-80
2021/01/02 10:33:14;;;;;;;2.80;1.08;;;;;;;5.53;67.18;99882.66;4400864;32;35351;-80
2021/01/02 10:35:41;;;;;;;1.45;1.37;;;;;;;5.73;66.85;99873.28;4396813;32;33001;-80
2021/01/02 10:38:08;;;;;;;3.60;3.30;;;;;;;5.92;65.73;99877.13;4402282;32;33522;-81
2021/01/02 10:40:35;;;;;;;5.43;4.93;;;;;;;6.02;65.71;99854.38;4386402;32;32814;-80
2021/01/02 10:43:02;;;;;;;2.43;2.23;;;;;;;6.00;65.98;99856.28;4393924;32;35027;-80
2021/01/02 10:45:29;;;;;;;2.83;2.60;;;;;;;6.10;65.76;99854.63;4374499;32;34612;-80
2021/01/02 10:47:57;;;;;;;2.10;2.00;;;;;;;6.02;66.36;99851.72;4383495;32;33306;-80
2021/01/02 10:50:24;;;;;;;1.58;1.48;;;;;;;6.12;65.86;99852.72;4394133;32;34383;-80
2021/01/02 10:52:51;;;;;;;2.90;2.70;;;;;;;5.88;66.27;99851.06;4384088;32;35746;-81
2021/01/02 10:55:19;;;;;;;2.90;2.70;;;;;;;5.85;66.93;99844.22;4376693;32;33838;-80
2021/01/02 10:57:46;;;;;;;1.23;1.12;;;;;;;6.08;65.44;99845.97;4387348;32;31994;-81
2021/01/02 11:00:14;;;;;;;4.68;2.05;;;;;;;6.17;65.25;99833.87;4394559;32;35799;-80
2021/01/02 11:02:46;;;;;;;1.02;1.02;;;;;;;6.02;65.92;99830.59;4388010;32;34559;-80
2021/01/02 11:05:13;;;;;;;3.28;2.97;;;;;;;5.92;66.06;99831.38;4401659;32;36377;-80
2021/01/02 11:07:41;;;;;;;2.10;1.92;;;;;;;6.18;65.38;99828.50;4400099;32;32923;-80
2021/01/02 11:10:12;;;;;;;2.60;1.58;;;;;;;6.19;65.18;99824.91;4386933;32;33705;-80
2021/01/02 11:12:42;;;;;;;3.45;1.73;;;;;;;5.95;65.73;99829.38;4384033;32;34543;-80
2021/01/02 11:15:11;;;;;;;1.98;1.52;;;;;;;6.06;64.95;99816.19;4386519;32;33979;-80
2021/01/02 11:17:40;;;;;;;4.07;2.00;;;;;;;6.16;64.97;99819.81;4388943;32;33937;-80
2021/01/02 11:20:09;;;;;;;1.75;1.62;;;;;;;6.31;64.84;99815.16;4402120;32;34385;-80
2021/01/02 11:22:36;;;;;;;2.53;2.28;;;;;;;6.27;65.30;99822.53;4388525;32;35038;-80
2021/01/02 11:25:04;;;;;;;2.30;1.50;;;;;;;6.47;64.42;99808.63;4391505;32;33078;-81
2021/01/02 11:27:32;;;;;;;2.97;2.35;;;;;;;6.36;64.20;99800.66;4389044;32;31376;-81
2021/01/02 11:30:02;;;;;;;1.20;1.20;;;;;;;6.53;63.92;99805.47;4370340;32;32698;-81
2021/01/02 11:32:29;;;;;;;4.37;3.40;;;;;;;6.90;63.11;99814.88;4381845;32;34631;-80
2021/01/02 11:34:56;;;;;;;1.47;1.37;;;;;;;7.05;62.62;99828.69;4397970;32;34608;-80
2021/01/02 11:37:23;;;;;;;2.37;1.98;;;;;;;6.98;62.75;99828.31;4407324;32;34390;-81
2021/01/02 11:39:50;;;;;;;2.45;2.05;;;;;;;7.19;62.62;99828.44;4387623;32;35782;-81
2021/01/02 11:42:18;;;;;;;2.58;2.17;;;;;;;7.37;61.61;99835.72;4362982;32;35050;-81
2021/01/02 11:44:48;;;;;;;3.20;2.72;;;;;;;7.65;60.51;99827.25;4400356;32;34913;-80
2021/01/02 11:47:18;;;;;;;4.40;1.45;;;;;;;7.25;61.33;99815.56;4388245;32;33946;-81
2021/01/02 11:49:47;;;;;;;;;;;;;;;7.42;62.04;99824.78;4376159;32;35101;-81
2021/01/02 11:52:14;;;;;;;3.08;2.45;;;;;;;7.29;61.05;99813.50;4386299;32;35684;-81
2021/01/02 11:54:45;;;;;;;4.47;1.92;;;;;;;7.27;62.81;99816.28;4411557;32;33875;-80
2021/01/02 11:57:12;;;;;;;2.42;2.22;;;;;;;7.48;61.46;99808.41;4385128;32;33231;-81
2021/01/02 11:59:43;;;;;;;2.35;2.15;;;;;;;7.89;60.17;99809.34;4386721;32;34286;-81
2021/01/02 12:02:10;;;;;;;3.30;2.10;;;;;;;8.02;59.22;99811.81;4385854;32;34604;-83
2021/01/02 12:04:45;;;;;;;2.92;2.60;;;;;;;8.04;59.45;99809.87;4378083;32;32734;-82
2021/01/02 12:07:13;;;;;;;2.12;1.77;;;;;;;8.18;58.63;99810.41;4395935;32;33293;-81
2021/01/02 12:09:43;;;;;;;3.03;1.98;;;;;;;7.93;59.45;99802.81;4401376;32;33580;-81
2021/01/02 12:12:10;;;;;;;1.20;1.08;;;;;;;7.94;59.98;99798.38;4387865;32;34921;-81
2021/01/02 12:14:37;;;;;;;1.80;1.70;;;;;;;7.83;59.88;99791.31;4387476;32;34902;-80
2021/01/02 12:17:13;;;;;;;4.22;2.22;;;;;;;7.57;60.15;99789.97;4386586;32;33897;-81
2021/01/02 12:19:42;;;;;;;2.92;2.72;;;;;;;7.59;60.47;99801.28;4388778;32;33861;-80
2021/01/02 12:22:09;;;;;;;6.12;1.42;;;;;;;7.66;60.39;99793.66;4387835;32;34906;-80
2021/01/02 12:24:36;;;;;;;1.58;1.30;;;;;;;7.59;60.30;99779.25;4385698;32;36250;-80
2021/01/02 12:27:07;;;;;;;1.90;1.73;;;;;;;7.14;61.27;99785.63;4386839;32;33220;-81
2021/01/02 12:29:36;;;;;;;1.75;0.77;;;;;;;7.23;61.76;99776.94;4379217;32;33842;-81
2021/01/02 12:32:05;;;;;;;;;;;;;;;7.51;60.71;99773.75;4388389;32;34500;-81
2021/01/02 12:34:39;;;;;;;1.27;1.17;;;;;;;7.13;62.02;99781.31;4401246;32;34682;-81
2021/01/02 12:37:13;;;;;;;5.62;2.80;;;;;;;7.06;62.48;99778.31;4381401;32;32217;-81
2021/01/02 12:39:42;;;;;;;2.10;1.95;;;;;;;7.16;62.12;99773.13;4372750;32;33718;-81
2021/01/02 12:42:10;;;;;;;4.30;1.98;;;;;;;7.07;62.26;99781.81;4373279;32;33704;-81
2021/01/02 12:44:38;;;;;;;2.47;2.10;;;;;;;7.11;62.33;99777.94;4373114;32;35579;-81
2021/01/02 12:47:13;;;;;;;1.65;1.55;;;;;;;7.39;61.21;99780.91;4386153;32;34330;-81
2021/01/02 12:49:45;;;;;;;3.80;2.35;;;;;;;7.10;62.85;99787.66;4386061;32;35877;-81
2021/01/02 12:52:12;;;;;;;31.77;2.85;;;;;;;7.39;61.94;99788.84;4398503;32;36922;-81
2021/01/02 12:54:40;;;;;;;2.20;2.10;;;;;;;7.47;61.32;99791.66;4387241;32;33311;-81
2021/01/02 12:57:07;;;;;;;3.03;2.72;;;;;;;7.48;61.30;99801.31;4388843;32;33692;-80
2021/01/02 12:59:36;;;;;;;1.55;0.90;;;;;;;7.48;61.51;99792.53;4400851;32;34709;-81
2021/01/02 13:02:09;;;;;;;0.98;0.98;;;;;;;7.40;61.80;99795.81;4388794;32;35472;-80
2021/01/02 13:04:38;;;;;;;2.03;1.92;;;;;;;7.28;62.12;99788.00;4387410;32;36225;-80
2021/01/02 13:07:06;;;;;;;2.30;1.58;;;;;;;7.38;61.90;99788.94;4360451;32;34955;-81
2021/01/02 13:09:34;;;;;;;2.40;2.28;;;;;;;7.54;61.66;99779.63;4385957;32;34466;-80
2021/01/02 13:12:03;;;;;;;0.88;0.80;;;;;;;7.70;61.49;99776.56;4385602;32;35514;-81
2021/01/02 13:14:32;;;;;;;2.67;2.45;;;;;;;7.88;60.13;99772.37;4397832;32;36501;-82
2021/01/02 13:17:04;;;;;;;2.35;2.15;;;;;;;7.82;60.23;99772.91;4397875;32;33757;-82
2021/01/02 13:19:34;;;;;;;7.07;2.90;;;;;;;7.99;59.96;99767.03;4401003;32;33704;-82
2021/01/02 13:22:07;;;;;;;1.45;1.45;;;;;;;7.76;60.77;99773.41;4375895;32;35105;-82
2021/01/02 13:24:37;;;;;;;3.25;2.40;;;;;;;7.77;60.77;99772.44;4363421;32;35547;-82
2021/01/02 13:27:07;;;;;;;3.90;3.33;;;;;;;7.60;61.68;99776.50;4398120;32;33571;-81
2021/01/02 13:29:37;;;;;;;3.25;1.60;;;;;;;7.77;60.98;99775.09;4373405;32;35094;-81
2021/01/02 13:32:06;;;;;;;1.45;1.05;;;;;;;7.44;62.06;99786.63;4386773;32;34688;-81
2021/01/02 13:34:37;;;;;;;1.83;1.25;;;;;;;7.82;60.93;99783.50;4373246;32;35402;-81
2021/01/02 13:37:07;;;;;;;1.90;1.73;;;;;;;7.59;61.63;99795.13;4386247;32;33083;-81
2021/01/02 13:39:35;;;;;;;1.87;1.23;;;;;;;7.67;61.58;99790.91;4385801;32;33822;-81
2021/01/02 13:42:13;;;;;;;0.52;0.52;;;;;;;7.67;61.61;99796.22;4376987;32;36844;-80
2021/01/02 13:44:41;;;;;;;3.15;2.78;;;;;;;7.61;61.62;99794.06;4400982;32;34058;-81
2021/01/02 13:47:11;;;;;;;1.02;1.00;;;;;;;7.68;61.95;99789.94;4400995;32;32939;-81
2021/01/02 13:49:38;;;;;;;3.42;3.12;;;;;;;7.45;62.04;99783.03;4400932;32;34321;-81
2021/01/02 13:52:07;;;;;;;1.48;1.37;;;;;;;7.61;62.14;99788.75;4385403;32;35444;-81
2021/01/02 13:54:35;;;;;;;1.27;1.10;;;;;;;7.37;62.83;99792.56;4372854;32;34513;-81
2021/01/02 13:57:02;;;;;;;2.90;1.80;;;;;;;7.72;61.57;99788.72;4360809;32;34923;-81
2021/01/02 13:59:29;;;;;;;1.52;1.42;;;;;;;7.69;61.67;99765.13;4373022;32;32455;-80
2021/01/02 14:01:58;;;;;;;3.40;2.70;;;;;;;7.57;62.42;99776.72;4381716;32;34847;-80
2021/01/02 14:04:27;;;;;;;2.53;1.52;;;;;;;7.48;62.79;99782.81;4388023;32;33772;-81
2021/01/02 14:06:56;;;;;;;1.87;1.58;;;;;;;7.54;62.49;99773.50;4375604;32;34520;-81
2021/01/02 14:09:27;;;;;;;3.33;1.75;;;;;;;7.23;63.88;99784.88;4385257;32;35633;-81
2021/01/02 14:11:58;;;;;;;3.03;2.17;;;;;;;7.30;63.56;99770.19;4372907;32;34118;-80
2021/01/02 14:14:27;;;;;;;2.12;0.98;;;;;;;7.13;64.46;99781.31;4360786;32;34844;-80
2021/01/02 14:16:57;;;;;;;1.80;1.30;;;;;;;7.29;63.97;99779.09;4386498;32;33105;-81
2021/01/02 14:19:26;;;;;;;1.87;1.08;;;;;;;7.48;63.29;99769.56;4385220;32;33858;-82
2021/01/02 14:21:55;;;;;;;1.55;1.20;;;;;;;7.39;64.10;99772.97;4385636;32;34826;-82
2021/01/02 14:24:24;;;;;;;2.72;1.37;;;;;;;7.37;63.99;99789.91;4385288;32;32348;-82
2021/01/02 14:26:57;;;;;;;0.77;0.77;;;;;;;7.33;63.97;99788.47;4372913;32;33671;-82
2021/01/02 14:29:27;;;;;;;3.50;1.08;;;;;;;7.31;64.29;99798.34;4387383;32;34922;-82
2021/01/02 14:31:54;;;;;;;1.67;1.05;;;;;;;7.38;64.07;99792.41;4385135;32;34680;-82
2021/01/02 14:34:24;;;;;;;1.95;1.60;;;;;;;7.52;63.69;99797.44;4372719;32;32969;-82
2021/01/02 14:36:57;;;;;;;1.02;1.02;;;;;;;7.09;65.03;99793.09;4385338;32;33188;-82
2021/01/02 14:39:26;;;;;;;1.67;1.55;;;;;;;7.16;65.08;99792.47;4391887;32;34542;-82
2021/01/02 14:41:59;;;;;;;2.20;2.00;;;;;;;7.05;65.70;99791.66;4399851;32;35681;-82
2021/01/02 14:44:27;;;;;;;3.83;2.03;;;;;;;6.94;66.37;99795.16;4387448;32;35707;-82
2021/01/02 14:46:56;;;;;;;1.05;1.05;;;;;;;7.09;66.02;99786.00;4399948;32;35741;-82
2021/01/02 14:49:23;;;;;;;1.85;0.60;;;;;;;6.81;66.99;99791.78;4380433;32;35084;-82
2021/01/02 14:51:53;;;;;;;1.10;1.10;;;;;;;6.95;66.48;99788.06;4384911;32;33588;-82
2021/01/02 14:54:26;;;;;;;5.40;2.37;;;;;;;6.77;67.29;99782.44;4385223;32;35106;-81
2021/01/02 14:57:02;;;;;;;1.95;1.25;;;;;;;6.56;68.04;99786.75;4384668;32;34295;-81
2021/01/02 14:59:31;;;;;;;1.08;1.02;;;;;;;6.87;67.34;99788.66;4384666;32;32456;-81
2021/01/02 15:01:58;;;;;;;3.08;1.58;;;;;;;6.95;67.08;99796.00;4372263;32;34946;-80
2021/01/02 15:04:27;;;;;;;2.20;2.08;;;;;;;6.86;67.38;99788.78;4384602;32;34137;-81
2021/01/02 15:06:55;;;;;;;1.17;1.12;;;;;;;6.93;67.13;99780.25;4384736;32;34272;-81
2021/01/02 15:09:23;;;;;;;1.00;1.00;;;;;;;7.04;66.92;99790.81;4373067;32;33460;-81
2021/01/02 15:11:51;;;;;;;3.35;2.47;;;;;;;6.84;67.65;99802.16;4371461;32;34418;-80
2021/01/02 15:14:19;;;;;;;2.78;1.05;;;;;;;6.59;68.81;99791.81;4384619;32;36919;-81
2021/01/02 15:16:47;;;;;;;1.65;1.55;;;;;;;6.81;68.07;99786.50;4384041;32;35530;-82
2021/01/02 15:19:15;;;;;;;3.08;2.37;;;;;;;6.81;68.02;99785.69;4387104;32;34019;-81
2021/01/02 15:21:42;;;;;;;3.45;1.83;;;;;;;6.85;67.95;99779.16;4399855;32;34726;-81
2021/01/02 15:24:10;;;;;;;2.42;1.40;;;;;;;6.66;68.44;99789.50;4392877;32;34863;-81
2021/01/02 15:26:37;;;;;;;2.22;1.92;;;;;;;6.63;68.98;99787.94;4387017;32;35124;-81
2021/01/02 15:29:08;;;;;;;3.25;1.40;;;;;;;6.77;68.61;99774.50;4387077;32;34420;-81
2021/01/02 15:31:42;;;;;;;3.60;1.83;;;;;;;6.68;69.05;99777.88;4399353;32;36621;-81
2021/01/02 15:34:13;;;;;;;2.37;2.22;;;;;;;6.66;69.30;99781.59;4372333;32;34997;-81
2021/01/02 15:36:42;;;;;;;1.70;1.60;;;;;;;6.50;69.59;99779.31;4384412;32;33303;-81
2021/01/02 15:39:15;;;;;;;2.22;2.12;;;;;;;6.67;69.32;99788.53;4382899;32;33816;-81
2021/01/02 15:41:43;;;;;;;4.75;2.55;;;;;;;6.52;69.87;99790.59;4401121;32;33404;-81
2021/01/02 15:44:16;;;;;;;2.70;2.50;;;;;;;6.88;68.70;99793.00;4387074;32;36164;-81
2021/01/02 15:46:49;;;;;;;2.20;2.08;;;;;;;6.74;69.15;99792.41;4395071;32;34480;-81
2021/01/02 15:49:18;;;;;;;2.05;1.58;;;;;;;6.80;68.99;99786.66;4383736;32;34184;-81
2021/01/02 15:51:50;;;;;;;2.97;2.00;;;;;;;6.89;68.43;99786.75;4388608;32;35956;-82
2021/01/02 15:54:20;;;;;;;1.33;1.23;;;;;;;6.85;68.76;99782.69;4401348;32;34747;-81
2021/01/02 15:56:48;;;;;;;3.42;2.60;;;;;;;6.89;68.60;99792.03;4400221;32;33162;-81
2021/01/02 15:59:18;;;;;;;1.67;1.58;;;;;;;6.86;68.96;99786.13;4392762;32;34052;-81
2021/01/02 16:01:45;;;;;;;1.98;1.85;;;;;;;6.87;68.79;99778.09;4388810;32;35123;-81
2021/01/02 16:04:14;;;;;;;2.60;2.15;;;;;;;7.07;68.02;99782.63;4372522;32;36089;-81
2021/01/02 16:06:41;;;;;;;1.55;1.45;;;;;;;7.02;68.10;99782.19;4392417;32;33959;-81
2021/01/02 16:09:12;;;;;;;2.60;2.17;;;;;;;7.19;67.67;99776.34;4388194;32;33491;-80
2021/01/02 16:11:41;;;;;;;10.10;1.65;;;;;;;6.97;68.63;99781.69;4399093;32;34581;-81
2021/01/02 16:14:11;;;;;;;2.12;1.62;;;;;;;7.17;67.89;99782.75;4386215;32;33943;-80
2021/01/02 16:16:40;;;;;;;4.75;2.50;;;;;;;6.91;68.98;99778.69;4376976;32;33428;-80
2021/01/02 16:19:12;;;;;;;1.58;1.48;;;;;;;6.68;69.89;99775.22;4380048;32;33281;-80
2021/01/02 16:21:45;;;;;;;3.35;1.92;;;;;;;7.14;68.22;99757.37;4388762;32;34123;-80
2021/01/02 16:24:19;;;;;;;8.18;2.37;;;;;;;6.70;69.61;99767.19;4383662;32;34418;-81
2021/01/02 16:26:59;;;;;;;3.30;2.78;;;;;;;6.69;70.07;99768.12;4376975;32;33030;-81
2021/01/02 16:29:34;;;;;;;2.47;2.28;;;;;;;6.76;69.85;99750.81;4402574;32;33658;-81
2021/01/02 16:32:16;;;;;;;2.33;2.10;;;;;;;6.83;69.44;99752.03;4401422;32;35035;-81
2021/01/02 16:34:50;;;;;;;1.90;1.80;;;;;;;6.74;69.76;99748.31;4389221;32;34102;-81
2021/01/02 16:37:25;;;;;;;1.65;1.37;;;;;;;6.90;69.31;99745.28;4374591;32;34369;-81
2021/01/02 16:39:55;;;;;;;7.85;4.93;;;;;;;6.65;70.45;99743.75;4397641;32;34181;-81
2021/01/02 16:42:26;;;;;;;1.98;1.60;;;;;;;6.79;70.12;99746.12;4409335;32;35666;-82
2021/01/02 16:45:03;;;;;;;1.98;1.50;;;;;;;6.83;69.96;99758.16;4387800;32;33808;-81
2021/01/02 16:47:31;;;;;;;1.62;1.42;;;;;;;6.84;69.76;99746.62;4375110;32;32922;-81
2021/01/02 16:49:59;;;;;;;3.65;2.55;;;;;;;6.90;69.75;99751.41;4371191;32;32499;-81
2021/01/02 16:52:29;;;;;;;2.30;2.10;;;;;;;7.00;69.40;99757.63;4366189;32;37053;-80
2021/01/02 16:55:04;;;;;;;3.45;3.15;;;;;;;6.82;70.03;99764.37;4400625;32;33440;-81
2021/01/02 16:57:31;;;;;;;2.60;1.37;;;;;;;6.80;70.42;99760.22;4377425;32;34036;-81
2021/01/02 16:59:58;;;;;;;4.03;1.33;;;;;;;6.74;70.67;99745.66;4374213;32;33021;-81
2021/01/02 17:02:27;;;;;;;;;;;;;;;6.77;70.51;99748.06;4395410;32;34936;-80
2021/01/02 17:04:55;;;;;;;1.40;1.30;;;;;;;6.97;70.00;99757.87;4397974;32;34355;-80
2021/01/02 17:07:24;;;;;;;1.45;1.40;;;;;;;7.12;69.49;99753.16;4375264;32;33050;-80
2021/01/02 17:09:52;;;;;;;5.78;2.70;;;;;;;6.88;70.25;99741.94;4385838;32;35327;-80
2021/01/02 17:12:20;;;;;;;2.72;1.58;;;;;;;6.84;70.59;99743.13;4380507;32;35558;-80
2021/01/02 17:14:49;;;;;;;3.60;3.30;;;;;;;6.92;70.30;99746.81;4374309;32;34137;-81
2021/01/02 17:17:17;;;;;;;3.15;1.95;;;;;;;6.81;70.73;99746.84;4399786;32;33762;-81
2021/01/02 17:19:45;;;;;;;2.60;1.95;;;;;;;6.92;70.64;99741.53;4396517;32;32884;-81
2021/01/02 17:22:12;;;;;;;3.00;2.20;;;;;;;6.94;70.61;99746.72;4392637;32;34645;-81
2021/01/02 17:24:44;;;;;;;2.25;1.10;;;;;;;7.12;69.91;99735.50;4384636;32;34209;-81
2021/01/02 17:27:13;;;;;;;2.20;1.67;;;;;;;6.89;70.65;99744.44;4390595;32;33246;-82
2021/01/02 17:29:42;;;;;;;6.28;3.30;;;;;;;7.09;69.99;99726.97;4393396;32;33387;-81
2021/01/02 17:32:12;;;;;;;4.47;3.03;;;;;;;6.99;70.37;99726.87;4389713;32;34276;-81
2021/01/02 17:34:41;;;;;;;3.87;2.33;;;;;;;6.88;70.90;99724.25;4388894;32;35162;-81
2021/01/02 17:37:17;;;;;;;3.65;2.42;;;;;;;6.91;70.85;99726.63;4404757;32;33874;-81
2021/01/02 17:39:48;;;;;;;2.62;2.33;;;;;;;7.00;70.57;99736.47;4400418;32;34532;-81
2021/01/02 17:42:18;;;;;;;3.85;2.15;;;;;;;6.96;71.02;99734.19;4361375;32;33367;-81
2021/01/02 17:44:47;;;;;;;3.08;1.58;;;;;;;6.87;71.10;99722.56;4392028;32;34038;-82
2021/01/02 17:47:20;;;;;;;3.05;2.87;;;;;;;6.84;71.50;99720.19;4373240;32;32799;-81
2021/01/02 17:49:48;;;;;;;3.30;2.33;;;;;;;6.79;71.72;99727.63;4380124;32;32819;-81
2021/01/02 17:52:16;;;;;;;;;;;;;;;6.90;71.39;99721.50;4382089;32;35141;-81
2021/01/02 17:54:45;;;;;;;2.35;1.95;;;;;;;6.91;71.36;99723.16;4392953;32;34182;-81
2021/01/02 17:57:14;;;;;;;4.95;3.80;;;;;;;6.98;71.02;99713.78;4395032;32;32696;-81
2021/01/02 17:59:41;;;;;;;4.00;2.45;;;;;;;6.93;71.00;99716.78;4404823;32;34079;-81
2021/01/02 18:02:09;;;;;;;3.55;1.70;;;;;;;6.89;71.30;99719.81;4391753;32;34455;-81
2021/01/02 18:04:38;;;;;;;6.97;2.92;;;;;;;6.78;71.69;99711.87;4393922;32;34602;-81
2021/01/02 18:07:05;;;;;;;3.87;2.85;;;;;;;6.63;72.31;99705.19;4379082;32;34342;-81
2021/01/02 18:09:35;;;;;;;5.70;2.50;;;;;;;6.57;72.59;99710.94;4392787;32;33800;-81
2021/01/02 18:12:05;;;;;;;5.70;3.87;;;;;;;6.67;72.46;99709.25;4385286;32;34649;-81
2021/01/02 18:14:32;;;;;;;3.35;1.77;;;;;;;6.79;72.01;99716.22;4400741;32;34201;-80
2021/01/02 18:17:04;;;;;;;1.87;1.30;;;;;;;6.68;72.42;99713.56;4385000;32;33134;-80
2021/01/02 18:19:33;;;;;;;4.82;2.60;;;;;;;6.86;71.84;99717.38;4387317;32;33362;-80
2021/01/02 18:22:05;;;;;;;1.12;1.08;;;;;;;6.71;72.12;99718.63;4388225;32;34763;-80
2021/01/02 18:24:34;;;;;;;0.68;0.68;;;;;;;6.93;71.50;99708.88;4381800;32;34066;-80
2021/01/02 18:27:05;;;;;;;2.15;2.05;;;;;;;6.97;71.21;99712.94;4375129;32;31766;-81
2021/01/02 18:29:33;;;;;;;1.52;1.37;;;;;;;6.81;71.74;99723.03;4376527;32;32849;-80
2021/01/02 18:32:01;;;;;;;4.70;3.62;;;;;;;7.04;70.91;99722.06;4362116;32;35836;-80
2021/01/02 18:34:33;;;;;;;10.52;2.67;;;;;;;6.64;71.81;99723.53;4371151;32;35207;-80
2021/01/02 18:37:09;;;;;;;4.15;3.03;;;;;;;7.09;70.18;99721.69;4381010;32;34255;-80
2021/01/02 18:39:38;;;;;;;3.20;2.28;;;;;;;7.01;70.64;99708.22;4385230;32;166215;-80
2021/01/02 18:42:09;;;;;;;1.12;1.05;;;;;;;6.79;71.32;99709.13;4374927;32;35133;-80
2021/01/02 18:44:37;;;;;;;3.37;3.12;;;;;;;6.77;71.35;99708.41;4360858;32;34186;-81
2021/01/02 18:47:07;;;;;;;5.12;2.22;;;;;;;6.84;70.95;99706.97;4381109;32;32914;-80
2021/01/02 18:49:35;;;;;;;2.67;1.92;;;;;;;6.78;70.92;99699.50;4388349;32;33555;-80
2021/01/02 18:52:06;;;;;;;1.77;1.67;;;;;;;6.81;70.98;99698.44;4399023;32;35931;-80
2021/01/02 18:54:34;;;;;;;2.80;1.70;;;;;;;6.75;71.17;99696.25;4412783;32;33865;-80
2021/01/02 18:57:05;;;;;;;4.55;2.00;;;;;;;6.80;70.71;99687.00;4374342;32;33745;-80
2021/01/02 18:59:32;;;;;;;2.90;2.67;;;;;;;6.29;72.63;99707.00;4372904;32;34398;-80
2021/01/02 19:02:03;;;;;;;3.95;2.22;;;;;;;6.45;72.24;99704.00;4388932;32;35727;-80
2021/01/02 19:04:32;;;;;;;4.93;2.65;;;;;;;6.66;71.36;99697.00;4385535;32;33599;-80
2021/01/02 19:07:04;;;;;;;1.65;1.55;;;;;;;6.74;70.94;99706.03;4360959;32;33090;-80
2021/01/02 19:09:33;;;;;;;2.03;1.70;;;;;;;6.61;71.20;99704.47;4398504;32;34465;-80
2021/01/02 19:12:07;;;;;;;3.87;2.17;;;;;;;6.95;70.04;99701.63;4400235;32;34431;-80
2021/01/02 19:14:42;;;;;;;0.75;0.65;;;;;;;6.80;70.49;99709.97;4386166;32;33910;-80
2021/01/02 19:17:13;;;;;;;2.92;1.65;;;;;;;6.75;70.43;99726.19;4385315;32;34316;-80
2021/01/02 19:19:47;;;;;;;2.85;2.37;;;;;;;6.45;71.42;99730.41;4385718;32;33716;-80
2021/01/02 19:22:33;;;;;;;2.85;1.83;;;;;;;6.49;71.06;99734.47;4374430;32;36088;-80
2021/01/02 19:25:04;;;;;;;2.12;1.67;;;;;;;6.62;70.63;99714.06;4373361;32;34060;-80